Terminal Aerodrome Forecast
Issued by NWS Shreveport, LA

Home | Current Version | Previous Version | Text Only | Print | Product List | Glossary On
Versions: 1 2 3 4 5 6 7 8 9 10 11 12 13 14 15 16 17
000
FTUS44 KSHV 301740
TAFTXK
TAF
KTXK 301740Z 3018/3118 27010KT P6SM -RA BKN050
      TEMPO 3018/3020 5SM -TSRA BR BKN030CB
     FM302000 31007KT P6SM BKN100
     FM310100 33006KT P6SM BKN250
     FM311200 33003KT P6SM BKN015
     FM311600 33006KT P6SM SCT250=

USA.gov is the U.S. government's official web portal to all federal, state and local government web resources and services.